sensor_id;sensor_type;location;lat;lon;timestamp;P1;durP1;ratioP1;P2;durP2;ratioP2
5690;SDS011;2870;42.680;23.364;2023-02-03T00:00:30;9.20;;;4.90;;
5690;SDS011;2870;42.680;23.364;2023-02-03T00:02:57;5.83;;;5.00;;
5690;SDS011;2870;42.680;23.364;2023-02-03T00:05:24;6.63;;;5.13;;
5690;SDS011;2870;42.680;23.364;2023-02-03T00:07:51;7.27;;;5.03;;
5690;SDS011;2870;42.680;23.364;2023-02-03T00:10:18;5.23;;;4.60;;
5690;SDS011;2870;42.680;23.364;2023-02-03T00:12:46;6.03;;;4.73;;
5690;SDS011;2870;42.680;23.364;2023-02-03T00:15:15;9.40;;;5.47;;
5690;SDS011;2870;42.680;23.364;2023-02-03T00:17:43;5.23;;;4.73;;
5690;SDS011;2870;42.680;23.364;2023-02-03T00:20:10;6.83;;;5.73;;
5690;SDS011;2870;42.680;23.364;2023-02-03T00:22:37;6.30;;;5.70;;
5690;SDS011;2870;42.680;23.364;2023-02-03T00:25:04;6.17;;;5.40;;
5690;SDS011;2870;42.680;23.364;2023-02-03T00:27:31;7.30;;;6.30;;
5690;SDS011;2870;42.680;23.364;2023-02-03T00:29:58;7.17;;;5.60;;
5690;SDS011;2870;42.680;23.364;2023-02-03T00:32:26;8.40;;;6.00;;
5690;SDS011;2870;42.680;23.364;2023-02-03T00:34:53;6.77;;;5.30;;
5690;SDS011;2870;42.680;23.364;2023-02-03T00:37:20;6.30;;;5.70;;
5690;SDS011;2870;42.680;23.364;2023-02-03T00:39:47;10.60;;;5.30;;
5690;SDS011;2870;42.680;23.364;2023-02-03T00:42:14;7.37;;;5.47;;
5690;SDS011;2870;42.680;23.364;2023-02-03T00:44:41;7.47;;;5.67;;
5690;SDS011;2870;42.680;23.364;2023-02-03T00:47:08;7.50;;;5.67;;
5690;SDS011;2870;42.680;23.364;2023-02-03T00:49:36;9.53;;;5.47;;
5690;SDS011;2870;42.680;23.364;2023-02-03T00:52:03;7.10;;;5.50;;
5690;SDS011;2870;42.680;23.364;2023-02-03T00:54:30;6.60;;;5.50;;
5690;SDS011;2870;42.680;23.364;2023-02-03T00:56:57;8.80;;;5.50;;
5690;SDS011;2870;42.680;23.364;2023-02-03T00:59:24;7.27;;;5.67;;
5690;SDS011;2870;42.680;23.364;2023-02-03T01:01:51;7.97;;;5.13;;
5690;SDS011;2870;42.680;23.364;2023-02-03T01:04:17;8.70;;;5.70;;
5690;SDS011;2870;42.680;23.364;2023-02-03T01:06:45;5.90;;;5.10;;
5690;SDS011;2870;42.680;23.364;2023-02-03T01:09:12;6.87;;;5.40;;
5690;SDS011;2870;42.680;23.364;2023-02-03T01:11:39;12.00;;;5.63;;
5690;SDS011;2870;42.680;23.364;2023-02-03T01:14:06;5.80;;;5.17;;
5690;SDS011;2870;42.680;23.364;2023-02-03T01:16:34;6.80;;;5.10;;
5690;SDS011;2870;42.680;23.364;2023-02-03T01:19:03;9.20;;;5.53;;
5690;SDS011;2870;42.680;23.364;2023-02-03T01:21:30;6.30;;;5.37;;
5690;SDS011;2870;42.680;23.364;2023-02-03T01:24:01;6.10;;;4.93;;
5690;SDS011;2870;42.680;23.364;2023-02-03T01:26:28;5.93;;;5.07;;
5690;SDS011;2870;42.680;23.364;2023-02-03T01:28:55;6.00;;;5.00;;
5690;SDS011;2870;42.680;23.364;2023-02-03T01:31:25;7.57;;;5.10;;
5690;SDS011;2870;42.680;23.364;2023-02-03T01:33:53;6.43;;;4.90;;
5690;SDS011;2870;42.680;23.364;2023-02-03T01:36:20;6.00;;;5.40;;
5690;SDS011;2870;42.680;23.364;2023-02-03T01:38:49;5.90;;;4.43;;
5690;SDS011;2870;42.680;23.364;2023-02-03T01:41:18;6.20;;;4.47;;
5690;SDS011;2870;42.680;23.364;2023-02-03T01:43:48;7.43;;;5.17;;
5690;SDS011;2870;42.680;23.364;2023-02-03T01:46:19;4.23;;;3.83;;
5690;SDS011;2870;42.680;23.364;2023-02-03T01:48:53;6.60;;;3.90;;
5690;SDS011;2870;42.680;23.364;2023-02-03T01:51:24;4.90;;;4.50;;
5690;SDS011;2870;42.680;23.364;2023-02-03T01:53:51;6.00;;;4.43;;
5690;SDS011;2870;42.680;23.364;2023-02-03T01:56:22;5.30;;;4.37;;
5690;SDS011;2870;42.680;23.364;2023-02-03T01:58:53;4.80;;;4.30;;
5690;SDS011;2870;42.680;23.364;2023-02-03T02:01:20;4.70;;;4.17;;
5690;SDS011;2870;42.680;23.364;2023-02-03T02:03:48;5.10;;;4.50;;
5690;SDS011;2870;42.680;23.364;2023-02-03T02:06:18;5.00;;;3.90;;
5690;SDS011;2870;42.680;23.364;2023-02-03T02:08:46;5.90;;;3.73;;
5690;SDS011;2870;42.680;23.364;2023-02-03T02:11:15;4.47;;;4.07;;
5690;SDS011;2870;42.680;23.364;2023-02-03T02:13:45;4.50;;;4.03;;
5690;SDS011;2870;42.680;23.364;2023-02-03T02:16:15;4.60;;;4.20;;
5690;SDS011;2870;42.680;23.364;2023-02-03T02:18:48;5.83;;;4.30;;
5690;SDS011;2870;42.680;23.364;2023-02-03T02:27:27;8.23;;;4.83;;
5690;SDS011;2870;42.680;23.364;2023-02-03T02:33:24;4.60;;;4.10;;
5690;SDS011;2870;42.680;23.364;2023-02-03T02:36:03;5.50;;;4.50;;
5690;SDS011;2870;42.680;23.364;2023-02-03T02:38:44;4.83;;;4.43;;
5690;SDS011;2870;42.680;23.364;2023-02-03T02:41:16;6.00;;;4.80;;
5690;SDS011;2870;42.680;23.364;2023-02-03T02:43:50;5.13;;;4.70;;
5690;SDS011;2870;42.680;23.364;2023-02-03T02:46:24;5.68;;;4.45;;
5690;SDS011;2870;42.680;23.364;2023-02-03T02:48:58;4.70;;;4.30;;
5690;SDS011;2870;42.680;23.364;2023-02-03T02:51:28;5.43;;;4.93;;
5690;SDS011;2870;42.680;23.364;2023-02-03T02:53:58;5.50;;;4.70;;
5690;SDS011;2870;42.680;23.364;2023-02-03T02:56:29;5.30;;;4.70;;
5690;SDS011;2870;42.680;23.364;2023-02-03T02:59:00;7.75;;;4.80;;
5690;SDS011;2870;42.680;23.364;2023-02-03T03:01:29;5.33;;;4.80;;
5690;SDS011;2870;42.680;23.364;2023-02-03T03:03:58;7.70;;;5.35;;
5690;SDS011;2870;42.680;23.364;2023-02-03T03:06:29;5.70;;;5.00;;
5690;SDS011;2870;42.680;23.364;2023-02-03T03:08:59;4.73;;;4.33;;
5690;SDS011;2870;42.680;23.364;2023-02-03T03:11:30;5.63;;;4.75;;
5690;SDS011;2870;42.680;23.364;2023-02-03T03:14:02;5.40;;;4.90;;
5690;SDS011;2870;42.680;23.364;2023-02-03T03:16:32;6.20;;;4.57;;
5690;SDS011;2870;42.680;23.364;2023-02-03T03:19:04;4.82;;;4.40;;
5690;SDS011;2870;42.680;23.364;2023-02-03T03:21:36;4.78;;;3.95;;
5690;SDS011;2870;42.680;23.364;2023-02-03T03:24:06;5.03;;;4.53;;
5690;SDS011;2870;42.680;23.364;2023-02-03T03:26:38;4.90;;;4.40;;
5690;SDS011;2870;42.680;23.364;2023-02-03T03:29:09;4.30;;;3.90;;
5690;SDS011;2870;42.680;23.364;2023-02-03T03:31:41;5.30;;;4.33;;
5690;SDS011;2870;42.680;23.364;2023-02-03T03:34:10;5.30;;;4.70;;
5690;SDS011;2870;42.680;23.364;2023-02-03T03:36:39;5.00;;;4.50;;
5690;SDS011;2870;42.680;23.364;2023-02-03T03:39:12;5.03;;;4.63;;
5690;SDS011;2870;42.680;23.364;2023-02-03T03:41:48;5.03;;;4.47;;
5690;SDS011;2870;42.680;23.364;2023-02-03T03:44:22;5.75;;;4.50;;
5690;SDS011;2870;42.680;23.364;2023-02-03T03:46:54;5.15;;;4.65;;
5690;SDS011;2870;42.680;23.364;2023-02-03T03:49:28;4.83;;;4.43;;
5690;SDS011;2870;42.680;23.364;2023-02-03T03:51:59;4.47;;;4.07;;
5690;SDS011;2870;42.680;23.364;2023-02-03T03:54:30;6.50;;;4.17;;
5690;SDS011;2870;42.680;23.364;2023-02-03T03:56:59;5.57;;;4.50;;
5690;SDS011;2870;42.680;23.364;2023-02-03T03:59:31;6.30;;;4.90;;
5690;SDS011;2870;42.680;23.364;2023-02-03T04:02:02;5.60;;;4.90;;
5690;SDS011;2870;42.680;23.364;2023-02-03T04:04:31;4.40;;;4.00;;
5690;SDS011;2870;42.680;23.364;2023-02-03T04:07:00;8.60;;;4.38;;
5690;SDS011;2870;42.680;23.364;2023-02-03T04:09:27;14.88;;;5.30;;
5690;SDS011;2870;42.680;23.364;2023-02-03T04:11:54;4.00;;;3.60;;
5690;SDS011;2870;42.680;23.364;2023-02-03T04:14:27;4.83;;;4.43;;
5690;SDS011;2870;42.680;23.364;2023-02-03T04:16:55;4.50;;;4.10;;
5690;SDS011;2870;42.680;23.364;2023-02-03T04:19:22;6.83;;;4.97;;
5690;SDS011;2870;42.680;23.364;2023-02-03T04:21:50;5.00;;;4.50;;
5690;SDS011;2870;42.680;23.364;2023-02-03T04:24:17;4.80;;;4.40;;
5690;SDS011;2870;42.680;23.364;2023-02-03T04:26:44;5.00;;;4.03;;
5690;SDS011;2870;42.680;23.364;2023-02-03T04:29:10;4.77;;;4.37;;
5690;SDS011;2870;42.680;23.364;2023-02-03T04:31:37;5.80;;;5.30;;
5690;SDS011;2870;42.680;23.364;2023-02-03T04:34:04;5.47;;;4.97;;
5690;SDS011;2870;42.680;23.364;2023-02-03T04:36:31;4.60;;;4.23;;
5690;SDS011;2870;42.680;23.364;2023-02-03T04:38:59;7.70;;;4.63;;
5690;SDS011;2870;42.680;23.364;2023-02-03T04:41:26;5.00;;;4.50;;
5690;SDS011;2870;42.680;23.364;2023-02-03T04:43:53;5.23;;;4.47;;
5690;SDS011;2870;42.680;23.364;2023-02-03T04:46:20;5.60;;;4.13;;
5690;SDS011;2870;42.680;23.364;2023-02-03T04:48:46;5.20;;;4.73;;
5690;SDS011;2870;42.680;23.364;2023-02-03T04:51:13;5.30;;;4.77;;
5690;SDS011;2870;42.680;23.364;2023-02-03T04:53:40;5.53;;;5.00;;
5690;SDS011;2870;42.680;23.364;2023-02-03T04:56:08;6.00;;;5.40;;
5690;SDS011;2870;42.680;23.364;2023-02-03T04:58:35;5.78;;;5.18;;
5690;SDS011;2870;42.680;23.364;2023-02-03T05:01:04;5.77;;;4.97;;
5690;SDS011;2870;42.680;23.364;2023-02-03T05:03:33;6.70;;;5.17;;
5690;SDS011;2870;42.680;23.364;2023-02-03T05:06:00;5.00;;;4.60;;
5690;SDS011;2870;42.680;23.364;2023-02-03T05:08:27;8.23;;;6.05;;
5690;SDS011;2870;42.680;23.364;2023-02-03T05:10:54;8.87;;;5.90;;
5690;SDS011;2870;42.680;23.364;2023-02-03T05:13:22;6.43;;;5.65;;
5690;SDS011;2870;42.680;23.364;2023-02-03T05:15:49;9.00;;;6.03;;
5690;SDS011;2870;42.680;23.364;2023-02-03T05:18:16;7.50;;;6.00;;
5690;SDS011;2870;42.680;23.364;2023-02-03T05:20:43;7.17;;;5.10;;
5690;SDS011;2870;42.680;23.364;2023-02-03T05:23:09;5.88;;;5.38;;
5690;SDS011;2870;42.680;23.364;2023-02-03T05:25:36;5.70;;;5.10;;
5690;SDS011;2870;42.680;23.364;2023-02-03T05:28:03;6.30;;;5.70;;
5690;SDS011;2870;42.680;23.364;2023-02-03T05:30:31;8.30;;;5.25;;
5690;SDS011;2870;42.680;23.364;2023-02-03T05:32:58;6.70;;;5.73;;
5690;SDS011;2870;42.680;23.364;2023-02-03T05:35:25;7.55;;;6.68;;
5690;SDS011;2870;42.680;23.364;2023-02-03T05:37:52;6.27;;;5.13;;
5690;SDS011;2870;42.680;23.364;2023-02-03T05:40:18;5.87;;;5.27;;
5690;SDS011;2870;42.680;23.364;2023-02-03T05:43:02;6.57;;;6.00;;
5690;SDS011;2870;42.680;23.364;2023-02-03T05:45:29;5.95;;;5.45;;
5690;SDS011;2870;42.680;23.364;2023-02-03T05:47:58;5.13;;;4.60;;
5690;SDS011;2870;42.680;23.364;2023-02-03T05:50:26;5.07;;;4.65;;
5690;SDS011;2870;42.680;23.364;2023-02-03T05:52:57;10.30;;;6.10;;
5690;SDS011;2870;42.680;23.364;2023-02-03T05:55:24;5.57;;;5.07;;
5690;SDS011;2870;42.680;23.364;2023-02-03T05:57:51;7.32;;;5.55;;
5690;SDS011;2870;42.680;23.364;2023-02-03T06:00:18;7.50;;;5.35;;
5690;SDS011;2870;42.680;23.364;2023-02-03T06:02:50;6.50;;;5.45;;
5690;SDS011;2870;42.680;23.364;2023-02-03T06:05:18;6.57;;;5.60;;
5690;SDS011;2870;42.680;23.364;2023-02-03T06:07:45;12.38;;;5.90;;
5690;SDS011;2870;42.680;23.364;2023-02-03T06:10:11;6.18;;;5.40;;
5690;SDS011;2870;42.680;23.364;2023-02-03T06:12:38;12.48;;;5.90;;
5690;SDS011;2870;42.680;23.364;2023-02-03T06:15:05;7.65;;;6.40;;
5690;SDS011;2870;42.680;23.364;2023-02-03T06:17:33;7.63;;;6.18;;
5690;SDS011;2870;42.680;23.364;2023-02-03T06:20:01;5.93;;;5.20;;
5690;SDS011;2870;42.680;23.364;2023-02-03T06:22:28;7.47;;;6.13;;
5690;SDS011;2870;42.680;23.364;2023-02-03T06:24:55;6.80;;;6.10;;
5690;SDS011;2870;42.680;23.364;2023-02-03T06:27:22;5.95;;;5.25;;
5690;SDS011;2870;42.680;23.364;2023-02-03T06:29:48;6.70;;;6.10;;
5690;SDS011;2870;42.680;23.364;2023-02-03T06:32:15;6.38;;;5.78;;
5690;SDS011;2870;42.680;23.364;2023-02-03T06:34:42;8.00;;;5.80;;
5690;SDS011;2870;42.680;23.364;2023-02-03T06:37:10;21.20;;;5.87;;
5690;SDS011;2870;42.680;23.364;2023-02-03T06:39:37;14.90;;;5.40;;
5690;SDS011;2870;42.680;23.364;2023-02-03T06:42:04;7.30;;;5.60;;
5690;SDS011;2870;42.680;23.364;2023-02-03T06:44:31;10.53;;;5.90;;
5690;SDS011;2870;42.680;23.364;2023-02-03T06:46:58;8.27;;;5.20;;
5690;SDS011;2870;42.680;23.364;2023-02-03T06:49:27;9.37;;;5.60;;
5690;SDS011;2870;42.680;23.364;2023-02-03T06:51:54;10.13;;;7.33;;
5690;SDS011;2870;42.680;23.364;2023-02-03T06:54:23;6.13;;;5.43;;
5690;SDS011;2870;42.680;23.364;2023-02-03T06:56:49;7.47;;;4.80;;
5690;SDS011;2870;42.680;23.364;2023-02-03T06:59:17;5.10;;;4.60;;
5690;SDS011;2870;42.680;23.364;2023-02-03T07:01:44;5.67;;;4.50;;
5690;SDS011;2870;42.680;23.364;2023-02-03T07:04:11;4.80;;;4.40;;
5690;SDS011;2870;42.680;23.364;2023-02-03T07:06:37;4.80;;;4.40;;
5690;SDS011;2870;42.680;23.364;2023-02-03T07:09:04;6.57;;;5.33;;
5690;SDS011;2870;42.680;23.364;2023-02-03T07:11:33;5.73;;;4.50;;
5690;SDS011;2870;42.680;23.364;2023-02-03T07:14:00;5.07;;;4.43;;
5690;SDS011;2870;42.680;23.364;2023-02-03T07:16:27;6.37;;;5.00;;
5690;SDS011;2870;42.680;23.364;2023-02-03T07:18:55;5.67;;;4.60;;
5690;SDS011;2870;42.680;23.364;2023-02-03T07:21:22;5.70;;;5.20;;
5690;SDS011;2870;42.680;23.364;2023-02-03T07:23:49;6.60;;;5.40;;
5690;SDS011;2870;42.680;23.364;2023-02-03T07:26:16;6.80;;;5.53;;
5690;SDS011;2870;42.680;23.364;2023-02-03T07:28:45;6.40;;;4.90;;
5690;SDS011;2870;42.680;23.364;2023-02-03T07:31:11;5.40;;;4.90;;
5690;SDS011;2870;42.680;23.364;2023-02-03T07:33:38;7.83;;;5.70;;
5690;SDS011;2870;42.680;23.364;2023-02-03T07:36:06;7.47;;;4.53;;
5690;SDS011;2870;42.680;23.364;2023-02-03T07:38:33;6.10;;;5.13;;
5690;SDS011;2870;42.680;23.364;2023-02-03T07:41:02;8.07;;;5.03;;
5690;SDS011;2870;42.680;23.364;2023-02-03T07:43:29;5.90;;;4.77;;
5690;SDS011;2870;42.680;23.364;2023-02-03T07:45:57;5.30;;;4.60;;
5690;SDS011;2870;42.680;23.364;2023-02-03T07:48:25;7.80;;;5.13;;
5690;SDS011;2870;42.680;23.364;2023-02-03T07:50:52;7.43;;;4.87;;
5690;SDS011;2870;42.680;23.364;2023-02-03T07:53:19;9.27;;;5.37;;
5690;SDS011;2870;42.680;23.364;2023-02-03T07:55:46;6.93;;;5.40;;
5690;SDS011;2870;42.680;23.364;2023-02-03T07:58:13;6.47;;;5.33;;
5690;SDS011;2870;42.680;23.364;2023-02-03T08:00:41;6.10;;;5.40;;
5690;SDS011;2870;42.680;23.364;2023-02-03T08:03:09;5.67;;;4.90;;
5690;SDS011;2870;42.680;23.364;2023-02-03T08:05:36;5.40;;;4.90;;
5690;SDS011;2870;42.680;23.364;2023-02-03T08:08:03;4.77;;;4.37;;
5690;SDS011;2870;42.680;23.364;2023-02-03T08:10:30;6.73;;;4.43;;
5690;SDS011;2870;42.680;23.364;2023-02-03T08:12:57;5.97;;;4.10;;
5690;SDS011;2870;42.680;23.364;2023-02-03T08:15:23;5.70;;;4.57;;
5690;SDS011;2870;42.680;23.364;2023-02-03T08:17:50;5.23;;;4.73;;
5690;SDS011;2870;42.680;23.364;2023-02-03T08:20:19;5.60;;;4.30;;
5690;SDS011;2870;42.680;23.364;2023-02-03T08:22:45;8.13;;;4.33;;
5690;SDS011;2870;42.680;23.364;2023-02-03T08:25:12;4.60;;;3.80;;
5690;SDS011;2870;42.680;23.364;2023-02-03T08:27:39;6.50;;;4.43;;
5690;SDS011;2870;42.680;23.364;2023-02-03T08:30:08;10.57;;;4.93;;
5690;SDS011;2870;42.680;23.364;2023-02-03T08:32:38;7.63;;;3.90;;
5690;SDS011;2870;42.680;23.364;2023-02-03T08:35:05;9.83;;;5.67;;
5690;SDS011;2870;42.680;23.364;2023-02-03T08:37:34;11.37;;;4.57;;
5690;SDS011;2870;42.680;23.364;2023-02-03T08:40:00;6.70;;;4.40;;
5690;SDS011;2870;42.680;23.364;2023-02-03T08:42:27;4.53;;;4.13;;
5690;SDS011;2870;42.680;23.364;2023-02-03T08:44:54;8.90;;;5.13;;
5690;SDS011;2870;42.680;23.364;2023-02-03T08:47:21;9.87;;;4.80;;
5690;SDS011;2870;42.680;23.364;2023-02-03T08:49:48;11.63;;;4.50;;
5690;SDS011;2870;42.680;23.364;2023-02-03T08:52:15;5.50;;;4.77;;
5690;SDS011;2870;42.680;23.364;2023-02-03T08:54:43;10.30;;;4.50;;
5690;SDS011;2870;42.680;23.364;2023-02-03T08:57:10;7.30;;;5.47;;
5690;SDS011;2870;42.680;23.364;2023-02-03T08:59:38;5.70;;;4.43;;
5690;SDS011;2870;42.680;23.364;2023-02-03T09:02:07;6.40;;;4.10;;
5690;SDS011;2870;42.680;23.364;2023-02-03T09:04:36;5.00;;;4.50;;
5690;SDS011;2870;42.680;23.364;2023-02-03T09:07:03;10.40;;;5.27;;
5690;SDS011;2870;42.680;23.364;2023-02-03T09:09:30;8.20;;;4.77;;
5690;SDS011;2870;42.680;23.364;2023-02-03T09:11:58;5.07;;;4.47;;
5690;SDS011;2870;42.680;23.364;2023-02-03T09:14:29;7.80;;;4.80;;
5690;SDS011;2870;42.680;23.364;2023-02-03T09:16:57;5.07;;;4.60;;
5690;SDS011;2870;42.680;23.364;2023-02-03T09:19:24;7.57;;;4.80;;
5690;SDS011;2870;42.680;23.364;2023-02-03T09:21:51;8.73;;;3.87;;
5690;SDS011;2870;42.680;23.364;2023-02-03T09:24:18;5.77;;;4.50;;
5690;SDS011;2870;42.680;23.364;2023-02-03T09:26:46;7.00;;;4.90;;
5690;SDS011;2870;42.680;23.364;2023-02-03T09:29:14;11.00;;;5.37;;
5690;SDS011;2870;42.680;23.364;2023-02-03T09:31:41;7.00;;;5.00;;
5690;SDS011;2870;42.680;23.364;2023-02-03T09:34:11;6.00;;;4.90;;
5690;SDS011;2870;42.680;23.364;2023-02-03T09:36:38;5.73;;;4.40;;
5690;SDS011;2870;42.680;23.364;2023-02-03T09:39:05;5.47;;;4.10;;
5690;SDS011;2870;42.680;23.364;2023-02-03T09:41:38;5.60;;;4.60;;
5690;SDS011;2870;42.680;23.364;2023-02-03T09:44:19;4.77;;;4.23;;
5690;SDS011;2870;42.680;23.364;2023-02-03T09:46:52;5.30;;;4.13;;
5690;SDS011;2870;42.680;23.364;2023-02-03T09:49:23;5.97;;;4.20;;
5690;SDS011;2870;42.680;23.364;2023-02-03T09:51:54;4.90;;;3.87;;
5690;SDS011;2870;42.680;23.364;2023-02-03T09:54:25;17.80;;;4.40;;
5690;SDS011;2870;42.680;23.364;2023-02-03T09:57:00;4.80;;;4.20;;
5690;SDS011;2870;42.680;23.364;2023-02-03T09:59:31;5.80;;;5.10;;
5690;SDS011;2870;42.680;23.364;2023-02-03T10:02:01;5.53;;;4.73;;
5690;SDS011;2870;42.680;23.364;2023-02-03T10:04:40;5.23;;;4.73;;
5690;SDS011;2870;42.680;23.364;2023-02-03T10:07:17;6.10;;;4.57;;
5690;SDS011;2870;42.680;23.364;2023-02-03T10:09:52;4.27;;;3.53;;
5690;SDS011;2870;42.680;23.364;2023-02-03T10:12:36;7.33;;;4.03;;
5690;SDS011;2870;42.680;23.364;2023-02-03T10:15:21;6.70;;;4.10;;
5690;SDS011;2870;42.680;23.364;2023-02-03T10:18:01;6.20;;;4.47;;
5690;SDS011;2870;42.680;23.364;2023-02-03T10:20:33;4.77;;;4.23;;
5690;SDS011;2870;42.680;23.364;2023-02-03T10:23:06;9.10;;;5.63;;
5690;SDS011;2870;42.680;23.364;2023-02-03T10:25:38;5.70;;;4.40;;
5690;SDS011;2870;42.680;23.364;2023-02-03T10:28:09;6.10;;;4.97;;
5690;SDS011;2870;42.680;23.364;2023-02-03T10:30:44;5.60;;;4.03;;
5690;SDS011;2870;42.680;23.364;2023-02-03T10:33:15;10.00;;;5.60;;
5690;SDS011;2870;42.680;23.364;2023-02-03T10:35:47;6.30;;;4.27;;
5690;SDS011;2870;42.680;23.364;2023-02-03T10:38:20;5.37;;;4.20;;
5690;SDS011;2870;42.680;23.364;2023-02-03T10:40:55;8.23;;;4.80;;
5690;SDS011;2870;42.680;23.364;2023-02-03T10:43:23;5.60;;;4.37;;
5690;SDS011;2870;42.680;23.364;2023-02-03T10:46:09;5.27;;;4.43;;
5690;SDS011;2870;42.680;23.364;2023-02-03T10:48:36;5.10;;;3.33;;
5690;SDS011;2870;42.680;23.364;2023-02-03T10:51:03;5.00;;;4.20;;
5690;SDS011;2870;42.680;23.364;2023-02-03T10:53:34;6.80;;;4.77;;
5690;SDS011;2870;42.680;23.364;2023-02-03T10:56:02;9.40;;;5.03;;
5690;SDS011;2870;42.680;23.364;2023-02-03T10:58:32;6.27;;;4.57;;
5690;SDS011;2870;42.680;23.364;2023-02-03T11:01:10;6.53;;;4.73;;
5690;SDS011;2870;42.680;23.364;2023-02-03T11:03:40;5.73;;;4.57;;
5690;SDS011;2870;42.680;23.364;2023-02-03T11:06:09;4.60;;;4.10;;
5690;SDS011;2870;42.680;23.364;2023-02-03T11:08:38;6.27;;;4.30;;
5690;SDS011;2870;42.680;23.364;2023-02-03T11:11:07;4.97;;;4.20;;
5690;SDS011;2870;42.680;23.364;2023-02-03T11:13:35;6.77;;;4.80;;
5690;SDS011;2870;42.680;23.364;2023-02-03T11:16:02;5.30;;;4.40;;
5690;SDS011;2870;42.680;23.364;2023-02-03T11:18:34;7.97;;;5.37;;
5690;SDS011;2870;42.680;23.364;2023-02-03T11:21:08;8.50;;;4.67;;
5690;SDS011;2870;42.680;23.364;2023-02-03T11:23:42;7.63;;;4.40;;
5690;SDS011;2870;42.680;23.364;2023-02-03T11:26:13;5.27;;;3.70;;
5690;SDS011;2870;42.680;23.364;2023-02-03T11:28:43;5.13;;;4.00;;
5690;SDS011;2870;42.680;23.364;2023-02-03T11:31:17;7.80;;;3.93;;
5690;SDS011;2870;42.680;23.364;2023-02-03T11:33:51;4.93;;;4.23;;
5690;SDS011;2870;42.680;23.364;2023-02-03T11:36:21;4.50;;;4.10;;
5690;SDS011;2870;42.680;23.364;2023-02-03T11:38:51;7.57;;;4.60;;
5690;SDS011;2870;42.680;23.364;2023-02-03T11:41:35;8.17;;;4.23;;
5690;SDS011;2870;42.680;23.364;2023-02-03T11:44:09;11.10;;;4.57;;
5690;SDS011;2870;42.680;23.364;2023-02-03T11:46:37;5.60;;;4.27;;
5690;SDS011;2870;42.680;23.364;2023-02-03T11:49:08;6.60;;;4.60;;
5690;SDS011;2870;42.680;23.364;2023-02-03T11:51:47;8.83;;;4.93;;
5690;SDS011;2870;42.680;23.364;2023-02-03T11:54:22;7.80;;;5.00;;
5690;SDS011;2870;42.680;23.364;2023-02-03T11:57:01;5.73;;;4.60;;
5690;SDS011;2870;42.680;23.364;2023-02-03T11:59:42;5.07;;;4.53;;
5690;SDS011;2870;42.680;23.364;2023-02-03T12:02:29;7.33;;;5.40;;
5690;SDS011;2870;42.680;23.364;2023-02-03T12:05:21;6.87;;;4.97;;
5690;SDS011;2870;42.680;23.364;2023-02-03T12:08:08;6.10;;;3.53;;
5690;SDS011;2870;42.680;23.364;2023-02-03T12:10:47;6.10;;;4.70;;
5690;SDS011;2870;42.680;23.364;2023-02-03T12:13:26;6.10;;;4.20;;
5690;SDS011;2870;42.680;23.364;2023-02-03T12:16:11;4.20;;;3.80;;
5690;SDS011;2870;42.680;23.364;2023-02-03T12:18:52;9.30;;;4.10;;
5690;SDS011;2870;42.680;23.364;2023-02-03T12:21:31;3.67;;;3.17;;
5690;SDS011;2870;42.680;23.364;2023-02-03T12:24:06;3.97;;;3.50;;
5690;SDS011;2870;42.680;23.364;2023-02-03T12:26:41;5.27;;;3.60;;
5690;SDS011;2870;42.680;23.364;2023-02-03T12:29:16;4.00;;;3.60;;
5690;SDS011;2870;42.680;23.364;2023-02-03T12:31:48;8.60;;;3.63;;
5690;SDS011;2870;42.680;23.364;2023-02-03T12:34:23;5.17;;;3.50;;
5690;SDS011;2870;42.680;23.364;2023-02-03T12:37:00;4.47;;;3.70;;
5690;SDS011;2870;42.680;23.364;2023-02-03T12:39:32;5.20;;;4.17;;
5690;SDS011;2870;42.680;23.364;2023-02-03T12:42:04;7.93;;;4.07;;
5690;SDS011;2870;42.680;23.364;2023-02-03T12:44:39;9.53;;;4.00;;
5690;SDS011;2870;42.680;23.364;2023-02-03T12:47:11;4.53;;;3.90;;
5690;SDS011;2870;42.680;23.364;2023-02-03T12:49:41;5.90;;;4.00;;
5690;SDS011;2870;42.680;23.364;2023-02-03T12:52:19;12.73;;;3.90;;
5690;SDS011;2870;42.680;23.364;2023-02-03T12:54:52;3.27;;;2.90;;
5690;SDS011;2870;42.680;23.364;2023-02-03T12:57:25;4.20;;;3.80;;
5690;SDS011;2870;42.680;23.364;2023-02-03T13:00:02;4.50;;;3.60;;
5690;SDS011;2870;42.680;23.364;2023-02-03T13:02:41;5.70;;;3.90;;
5690;SDS011;2870;42.680;23.364;2023-02-03T13:05:18;6.33;;;4.13;;
5690;SDS011;2870;42.680;23.364;2023-02-03T13:07:51;4.23;;;3.67;;
5690;SDS011;2870;42.680;23.364;2023-02-03T13:10:25;7.03;;;5.13;;
5690;SDS011;2870;42.680;23.364;2023-02-03T13:12:58;5.33;;;4.17;;
5690;SDS011;2870;42.680;23.364;2023-02-03T13:15:27;5.00;;;4.20;;
5690;SDS011;2870;42.680;23.364;2023-02-03T13:18:00;8.23;;;4.07;;
5690;SDS011;2870;42.680;23.364;2023-02-03T13:20:31;5.67;;;4.33;;
5690;SDS011;2870;42.680;23.364;2023-02-03T13:23:01;5.47;;;4.90;;
5690;SDS011;2870;42.680;23.364;2023-02-03T13:25:37;6.53;;;4.70;;
5690;SDS011;2870;42.680;23.364;2023-02-03T13:28:16;16.40;;;4.50;;
5690;SDS011;2870;42.680;23.364;2023-02-03T13:31:06;5.70;;;4.50;;
5690;SDS011;2870;42.680;23.364;2023-02-03T13:33:48;3.60;;;3.30;;
5690;SDS011;2870;42.680;23.364;2023-02-03T13:42:31;5.10;;;4.60;;
5690;SDS011;2870;42.680;23.364;2023-02-03T13:45:05;6.90;;;4.60;;
5690;SDS011;2870;42.680;23.364;2023-02-03T13:47:38;13.17;;;5.07;;
5690;SDS011;2870;42.680;23.364;2023-02-03T13:50:15;8.20;;;4.30;;
5690;SDS011;2870;42.680;23.364;2023-02-03T13:52:51;6.60;;;4.83;;
5690;SDS011;2870;42.680;23.364;2023-02-03T13:55:32;6.93;;;4.67;;
5690;SDS011;2870;42.680;23.364;2023-02-03T13:58:02;5.80;;;5.20;;
5690;SDS011;2870;42.680;23.364;2023-02-03T14:03:40;6.10;;;4.60;;
5690;SDS011;2870;42.680;23.364;2023-02-03T14:06:10;5.47;;;4.50;;
5690;SDS011;2870;42.680;23.364;2023-02-03T14:09:35;5.23;;;4.60;;
5690;SDS011;2870;42.680;23.364;2023-02-03T14:12:19;6.10;;;4.80;;
5690;SDS011;2870;42.680;23.364;2023-02-03T14:17:59;5.97;;;5.33;;
5690;SDS011;2870;42.680;23.364;2023-02-03T14:20:46;8.40;;;5.50;;
5690;SDS011;2870;42.680;23.364;2023-02-03T14:23:21;6.10;;;4.97;;
5690;SDS011;2870;42.680;23.364;2023-02-03T14:25:55;9.73;;;5.57;;
5690;SDS011;2870;42.680;23.364;2023-02-03T14:28:27;9.00;;;4.87;;
5690;SDS011;2870;42.680;23.364;2023-02-03T14:31:04;5.57;;;4.87;;
5690;SDS011;2870;42.680;23.364;2023-02-03T14:36:29;7.43;;;5.00;;
5690;SDS011;2870;42.680;23.364;2023-02-03T14:39:25;7.73;;;5.53;;
5690;SDS011;2870;42.680;23.364;2023-02-03T14:42:16;6.17;;;4.60;;
5690;SDS011;2870;42.680;23.364;2023-02-03T14:44:55;7.30;;;5.83;;
5690;SDS011;2870;42.680;23.364;2023-02-03T14:47:36;6.60;;;5.10;;
5690;SDS011;2870;42.680;23.364;2023-02-03T14:50:23;7.87;;;5.40;;
5690;SDS011;2870;42.680;23.364;2023-02-03T14:53:04;8.07;;;5.03;;
5690;SDS011;2870;42.680;23.364;2023-02-03T14:55:45;8.33;;;5.37;;
5690;SDS011;2870;42.680;23.364;2023-02-03T14:58:26;6.10;;;5.50;;
5690;SDS011;2870;42.680;23.364;2023-02-03T15:00:58;6.50;;;5.80;;
5690;SDS011;2870;42.680;23.364;2023-02-03T15:03:26;5.03;;;4.53;;
5690;SDS011;2870;42.680;23.364;2023-02-03T15:05:56;6.63;;;4.87;;
5690;SDS011;2870;42.680;23.364;2023-02-03T15:08:35;4.83;;;4.43;;
5690;SDS011;2870;42.680;23.364;2023-02-03T15:11:20;6.30;;;5.00;;
5690;SDS011;2870;42.680;23.364;2023-02-03T15:13:55;6.30;;;4.63;;
5690;SDS011;2870;42.680;23.364;2023-02-03T15:16:40;5.90;;;5.10;;
5690;SDS011;2870;42.680;23.364;2023-02-03T15:19:13;5.53;;;4.87;;
5690;SDS011;2870;42.680;23.364;2023-02-03T15:21:42;6.97;;;5.40;;
5690;SDS011;2870;42.680;23.364;2023-02-03T15:24:12;5.73;;;5.13;;
5690;SDS011;2870;42.680;23.364;2023-02-03T15:26:44;8.77;;;5.97;;
5690;SDS011;2870;42.680;23.364;2023-02-03T15:29:18;7.67;;;6.20;;
5690;SDS011;2870;42.680;23.364;2023-02-03T15:31:49;10.53;;;7.50;;
5690;SDS011;2870;42.680;23.364;2023-02-03T15:34:22;11.93;;;6.30;;
5690;SDS011;2870;42.680;23.364;2023-02-03T15:36:53;8.80;;;6.20;;
5690;SDS011;2870;42.680;23.364;2023-02-03T15:39:24;18.63;;;9.13;;
5690;SDS011;2870;42.680;23.364;2023-02-03T15:42:01;9.70;;;6.10;;
5690;SDS011;2870;42.680;23.364;2023-02-03T15:44:31;14.70;;;6.50;;
5690;SDS011;2870;42.680;23.364;2023-02-03T15:47:03;8.50;;;6.30;;